createdAt,value
2018-11-01T00:01:05.380Z,100571.77
2018-11-01T00:03:34.327Z,100567.96
2018-11-01T00:06:02.882Z,100576.48
2018-11-01T00:08:31.425Z,100576.52
2018-11-01T00:10:59.917Z,100565.56
2018-11-01T00:13:28.388Z,100572.64
2018-11-01T00:15:56.930Z,100566.19
2018-11-01T00:18:25.444Z,100567.91
2018-11-01T00:20:53.969Z,100563.78
2018-11-01T00:23:22.781Z,100569.09
2018-11-01T00:25:51.282Z,100562.31
2018-11-01T00:28:19.855Z,100566.82
2018-11-01T00:30:48.407Z,100571.64
2018-11-01T00:33:16.942Z,100589.37
2018-11-01T00:35:45.553Z,100593.38
2018-11-01T00:38:14.121Z,100579.11
2018-11-01T00:40:42.631Z,100573.81
2018-11-01T00:43:11.162Z,100569.21
2018-11-01T00:45:39.734Z,100566.73
2018-11-01T00:48:08.225Z,100565.09
2018-11-01T00:50:36.731Z,100560.64
2018-11-01T00:53:05.242Z,100558.77
2018-11-01T00:55:33.766Z,100559.33
2018-11-01T00:58:02.373Z,100560.00
2018-11-01T01:00:30.989Z,100562.61
2018-11-01T01:02:59.529Z,100556.25
2018-11-01T01:05:28.110Z,100555.16
2018-11-01T01:07:56.691Z,100559.41
2018-11-01T01:10:25.173Z,100556.92
2018-11-01T01:12:53.686Z,100556.50
2018-11-01T01:15:22.173Z,100552.92
2018-11-01T01:17:50.679Z,100541.81
2018-11-01T01:20:19.225Z,100541.25
2018-11-01T01:22:48.255Z,100543.14
2018-11-01T01:25:18.830Z,100531.72
2018-11-01T01:27:47.668Z,100528.29
2018-11-01T01:30:19.144Z,100537.03
2018-11-01T01:32:48.137Z,100529.16
2018-11-01T01:35:16.897Z,100530.10
2018-11-01T01:37:45.713Z,100540.53
2018-11-01T01:40:14.253Z,100524.74
2018-11-01T01:42:48.093Z,100523.73
2018-11-01T01:45:16.677Z,100516.27
2018-11-01T01:47:45.193Z,100522.41
2018-11-01T01:50:15.071Z,100526.28
2018-11-01T01:52:44.375Z,100528.13
2018-11-01T01:55:12.977Z,100526.46
2018-11-01T01:57:41.505Z,100524.23
2018-11-01T02:00:12.593Z,100521.78
2018-11-01T02:02:45.544Z,100517.16
2018-11-01T02:05:14.107Z,100511.73
2018-11-01T02:07:42.709Z,100501.31
2018-11-01T02:10:13.940Z,100508.28
2018-11-01T02:12:42.498Z,100494.13
2018-11-01T02:15:13.325Z,100496.28
2018-11-01T02:17:42.449Z,100488.59
2018-11-01T02:20:12.635Z,100486.83
2018-11-01T02:22:41.825Z,100494.28
2018-11-01T02:25:10.643Z,100488.33
2018-11-01T02:27:44.524Z,100482.38
2018-11-01T02:30:14.255Z,100475.03
2018-11-01T02:32:43.502Z,100474.85
2018-11-01T02:35:13.394Z,100471.08
2018-11-01T02:37:42.241Z,100464.76
2018-11-01T02:40:11.318Z,100466.98
2018-11-01T02:42:40.387Z,100473.38
2018-11-01T02:45:09.714Z,100462.84
2018-11-01T02:47:38.513Z,100465.73
2018-11-01T02:50:07.646Z,100464.53
2018-11-01T02:52:36.211Z,100452.78
2018-11-01T02:55:05.174Z,100452.93
2018-11-01T02:57:33.667Z,100453.53
2018-11-01T03:00:02.171Z,100451.80
2018-11-01T03:02:30.937Z,100445.16
2018-11-01T03:04:59.529Z,100448.44
2018-11-01T03:07:28.092Z,100437.25
2018-11-01T03:09:56.695Z,100441.89
2018-11-01T03:12:25.218Z,100437.89
2018-11-01T03:14:53.758Z,100429.53
2018-11-01T03:17:22.334Z,100431.78
2018-11-01T03:19:50.822Z,100428.58
2018-11-01T03:22:19.329Z,100423.50
2018-11-01T03:24:47.863Z,100416.03
2018-11-01T03:27:16.350Z,100412.45
2018-11-01T03:29:44.854Z,100415.03
2018-11-01T03:32:13.397Z,100406.25
2018-11-01T03:34:41.883Z,100403.47
2018-11-01T03:37:10.430Z,100409.99
2018-11-01T03:39:38.894Z,100398.95
2018-11-01T03:42:07.414Z,100399.40
2018-11-01T03:44:35.961Z,100399.87
2018-11-01T03:47:04.445Z,100386.01
2018-11-01T03:49:32.979Z,100378.78
2018-11-01T03:52:01.582Z,100375.78
2018-11-01T03:54:30.143Z,100382.48
2018-11-01T03:56:58.705Z,100381.59
2018-11-01T03:59:27.171Z,100379.47
2018-11-01T04:01:55.697Z,100379.47
2018-11-01T04:04:24.185Z,100382.17
2018-11-01T04:06:52.693Z,100373.48
2018-11-01T04:09:21.210Z,100374.02
2018-11-01T04:11:49.753Z,100381.09
2018-11-01T04:14:18.213Z,100385.05
2018-11-01T04:16:46.764Z,100381.66
2018-11-01T04:19:15.292Z,100383.88
2018-11-01T04:21:43.790Z,100382.86
2018-11-01T04:24:12.470Z,100376.34
2018-11-01T04:26:40.973Z,100377.66
2018-11-01T04:29:09.558Z,100377.72
2018-11-01T04:31:38.054Z,100379.23
2018-11-01T04:34:06.585Z,100382.44
2018-11-01T04:36:35.110Z,100380.27
2018-11-01T04:39:04.141Z,100384.55
2018-11-01T04:41:32.635Z,100381.70
2018-11-01T04:44:01.184Z,100373.14
2018-11-01T04:46:29.758Z,100369.11
2018-11-01T04:48:58.303Z,100383.94
2018-11-01T04:51:26.761Z,100378.11
2018-11-01T04:53:55.246Z,100375.87
2018-11-01T04:56:23.759Z,100362.03
2018-11-01T04:58:52.415Z,100364.81
2018-11-01T05:01:22.329Z,100360.03
2018-11-01T05:03:52.801Z,100360.78
2018-11-01T05:06:21.730Z,100348.55
2018-11-01T05:08:50.335Z,100343.48
2018-11-01T05:11:19.259Z,100350.13
2018-11-01T05:13:48.445Z,100339.20
2018-11-01T05:16:17.013Z,100340.86
2018-11-01T05:18:46.072Z,100348.82
2018-11-01T05:21:15.074Z,100348.55
2018-11-01T05:23:43.581Z,100352.43
2018-11-01T05:26:12.074Z,100351.58
2018-11-01T05:28:40.643Z,100356.38
2018-11-01T05:31:09.154Z,100357.50
2018-11-01T05:33:37.691Z,100358.13
2018-11-01T05:36:06.382Z,100362.48
2018-11-01T05:38:34.950Z,100368.12
2018-11-01T05:41:03.462Z,100371.42
2018-11-01T05:43:31.991Z,100378.09
2018-11-01T05:46:00.476Z,100384.93
2018-11-01T05:48:29.050Z,100389.63
2018-11-01T05:50:57.550Z,100391.77
2018-11-01T05:53:26.034Z,100394.91
2018-11-01T05:55:54.553Z,100404.29
2018-11-01T05:58:23.012Z,100410.40
2018-11-01T06:00:51.612Z,100406.09
2018-11-01T06:04:44.747Z,100395.27
2018-11-01T06:07:13.357Z,100399.87
2018-11-01T06:09:41.858Z,100402.38
2018-11-01T06:12:10.436Z,100390.88
2018-11-01T06:14:39.026Z,100392.38
2018-11-01T06:17:07.564Z,100383.51
2018-11-01T06:19:36.115Z,100378.20
2018-11-01T06:22:04.714Z,100384.17
2018-11-01T06:24:33.237Z,100384.73
2018-11-01T06:27:01.754Z,100385.67
2018-11-01T06:29:30.282Z,100389.61
2018-11-01T06:31:58.807Z,100382.75
2018-11-01T06:34:39.533Z,100385.56
2018-11-01T06:37:08.022Z,100388.86
2018-11-01T06:39:36.513Z,100397.89
2018-11-01T06:42:05.038Z,100395.45
2018-11-01T06:44:33.601Z,100394.89
2018-11-01T06:47:02.178Z,100398.34
2018-11-01T06:49:30.758Z,100400.34
2018-11-01T06:51:59.229Z,100402.18
2018-11-01T06:54:27.969Z,100408.10
2018-11-01T06:56:56.483Z,100407.19
2018-11-01T06:59:25.137Z,100408.70
2018-11-01T07:01:53.566Z,100415.14
2018-11-01T07:04:22.179Z,100420.70
2018-11-01T07:06:50.687Z,100416.11
2018-11-01T07:09:19.183Z,100412.00
2018-11-01T07:11:47.765Z,100410.48
2018-11-01T07:14:16.332Z,100408.39
2018-11-01T07:16:44.813Z,100413.18
2018-11-01T07:19:13.370Z,100413.47
2018-11-01T07:21:41.946Z,100400.98
2018-11-01T07:24:10.426Z,100405.59
2018-11-01T07:26:38.938Z,100406.23
2018-11-01T07:29:07.532Z,100406.34
2018-11-01T07:31:36.058Z,100410.04
2018-11-01T07:34:04.643Z,100410.47
2018-11-01T07:36:33.290Z,100414.41
2018-11-01T07:39:01.841Z,100412.63
2018-11-01T07:41:30.416Z,100412.34
2018-11-01T07:43:58.969Z,100413.84
2018-11-01T07:46:27.527Z,100407.24
2018-11-01T07:48:56.069Z,100413.53
2018-11-01T07:51:24.775Z,100414.24
2018-11-01T07:53:53.355Z,100408.11
2018-11-01T07:56:22.052Z,100405.50
2018-11-01T07:58:50.542Z,100401.47
2018-11-01T08:01:19.105Z,100394.13
2018-11-01T08:03:47.670Z,100385.59
2018-11-01T08:06:16.194Z,100389.72
2018-11-01T08:08:44.714Z,100384.23
2018-11-01T08:11:13.249Z,100378.03
2018-11-01T08:13:41.769Z,100389.62
2018-11-01T08:16:10.317Z,100379.12
2018-11-01T08:18:39.084Z,100376.86
2018-11-01T08:21:07.814Z,100384.01
2018-11-01T08:23:36.313Z,100373.80
2018-11-01T08:26:04.932Z,100374.67
2018-11-01T08:28:33.498Z,100378.39
2018-11-01T08:31:02.016Z,100381.14
2018-11-01T08:33:30.526Z,100380.97
2018-11-01T08:35:59.055Z,100383.20
2018-11-01T08:38:27.558Z,100386.77
2018-11-01T08:40:56.204Z,100389.91
2018-11-01T08:43:24.653Z,100380.19
2018-11-01T08:45:53.146Z,100371.39
2018-11-01T08:48:21.694Z,100368.22
2018-11-01T08:50:50.180Z,100368.27
2018-11-01T08:53:18.698Z,100367.10
2018-11-01T08:55:47.241Z,100362.50
2018-11-01T08:58:15.750Z,100353.66
2018-11-01T09:00:44.333Z,100352.54
2018-11-01T09:03:12.873Z,100339.64
2018-11-01T09:05:41.387Z,100330.48
2018-11-01T09:08:10.019Z,100333.49
2018-11-01T09:10:38.690Z,100334.61
2018-11-01T09:13:07.165Z,100336.84
2018-11-01T09:15:35.713Z,100332.30
2018-11-01T09:18:04.189Z,100331.06
2018-11-01T09:20:32.758Z,100334.33
2018-11-01T09:23:01.346Z,100336.39
2018-11-01T09:25:29.898Z,100338.03
2018-11-01T09:27:58.501Z,100338.77
2018-11-01T09:30:26.981Z,100344.45
2018-11-01T09:32:55.512Z,100343.45
2018-11-01T09:35:24.176Z,100343.65
2018-11-01T09:37:52.670Z,100340.78
2018-11-01T09:40:21.209Z,100329.88
2018-11-01T09:42:49.712Z,100328.97
2018-11-01T09:45:18.202Z,100332.94
2018-11-01T09:47:46.901Z,100333.95
2018-11-01T09:50:15.373Z,100335.37
2018-11-01T09:52:43.890Z,100334.13
2018-11-01T09:55:12.443Z,100334.23
2018-11-01T09:57:40.953Z,100331.27
2018-11-01T10:00:12.166Z,100326.75
2018-11-01T10:02:40.785Z,100326.61
2018-11-01T10:05:09.969Z,100327.98
2018-11-01T10:07:38.910Z,100327.20
2018-11-01T10:10:10.490Z,100318.31
2018-11-01T10:12:39.548Z,100315.02
2018-11-01T10:15:09.542Z,100301.41
2018-11-01T10:17:38.344Z,100311.19
2018-11-01T10:20:08.834Z,100307.94
2018-11-01T10:22:37.445Z,100309.89
2018-11-01T10:25:07.005Z,100312.01
2018-11-01T10:27:35.608Z,100315.05
2018-11-01T10:30:04.195Z,100312.52
2018-11-01T10:32:32.779Z,100312.66
2018-11-01T10:35:01.251Z,100307.67
2018-11-01T10:37:29.887Z,100314.88
2018-11-01T10:39:58.397Z,100316.48
2018-11-01T10:42:26.901Z,100316.20
2018-11-01T10:44:55.492Z,100310.71
2018-11-01T10:47:24.101Z,100301.04
2018-11-01T10:49:52.674Z,100303.05
2018-11-01T10:52:21.238Z,100308.18
2018-11-01T10:54:49.773Z,100303.00
2018-11-01T10:57:18.282Z,100297.03
2018-11-01T10:59:46.859Z,100305.48
2018-11-01T11:02:15.358Z,100298.48
2018-11-01T11:04:43.918Z,100293.70
2018-11-01T11:07:12.548Z,100291.95
2018-11-01T11:09:41.065Z,100288.00
2018-11-01T11:12:09.666Z,100291.63
2018-11-01T11:14:38.238Z,100286.11
2018-11-01T11:17:06.761Z,100280.86
2018-11-01T11:19:35.337Z,100288.02
2018-11-01T11:22:03.884Z,100286.72
2018-11-01T11:24:32.444Z,100278.00
2018-11-01T11:27:01.030Z,100265.12
2018-11-01T11:29:29.566Z,100275.06
2018-11-01T11:31:58.191Z,100279.25
2018-11-01T11:34:26.817Z,100278.16
2018-11-01T11:36:55.370Z,100278.16
2018-11-01T11:39:23.911Z,100276.00
2018-11-01T11:41:52.529Z,100275.88
2018-11-01T11:44:21.067Z,100285.35
2018-11-01T11:46:49.569Z,100280.31
2018-11-01T11:49:18.171Z,100278.70
2018-11-01T11:51:46.686Z,100271.19
2018-11-01T11:54:15.217Z,100271.20
2018-11-01T11:56:43.828Z,100268.47
2018-11-01T11:59:12.343Z,100263.41
2018-11-01T12:01:40.888Z,100260.25
2018-11-01T12:04:09.533Z,100260.73
2018-11-01T12:06:38.051Z,100246.65
2018-11-01T12:09:07.918Z,100252.02
2018-11-01T12:11:36.501Z,100247.94
2018-11-01T12:14:05.161Z,100245.38
2018-11-01T12:16:33.712Z,100249.64
2018-11-01T12:19:02.289Z,100243.95
2018-11-01T12:21:30.839Z,100241.98
2018-11-01T12:23:59.392Z,100238.03
2018-11-01T12:26:27.925Z,100244.02
2018-11-01T12:28:56.470Z,100239.11
2018-11-01T12:31:25.039Z,100225.38
2018-11-01T12:33:53.555Z,100240.02
2018-11-01T12:36:22.055Z,100223.15
2018-11-01T12:38:50.606Z,100229.41
2018-11-01T12:41:19.298Z,100228.52
2018-11-01T12:43:47.757Z,100216.81
2018-11-01T12:46:16.306Z,100217.41
2018-11-01T12:48:44.860Z,100212.72
2018-11-01T12:51:13.345Z,100214.16
2018-11-01T12:53:41.917Z,100212.11
2018-11-01T12:56:10.766Z,100206.77
2018-11-01T12:58:39.284Z,100202.73
2018-11-01T13:01:07.870Z,100211.05
2018-11-01T13:03:36.408Z,100204.59
2018-11-01T13:06:05.049Z,100207.14
2018-11-01T13:08:33.666Z,100206.22
2018-11-01T13:11:02.209Z,100200.80
2018-11-01T13:13:30.778Z,100195.30
2018-11-01T13:15:59.271Z,100211.02
2018-11-01T13:18:27.905Z,100208.69
2018-11-01T13:20:56.412Z,100211.19
2018-11-01T13:23:24.963Z,100207.79
2018-11-01T13:25:53.625Z,100217.98
2018-11-01T13:28:22.111Z,100200.70
2018-11-01T13:30:50.675Z,100219.52
2018-11-01T13:33:19.218Z,100217.70
2018-11-01T13:35:47.766Z,100218.76
2018-11-01T13:38:16.276Z,100208.74
2018-11-01T13:40:45.371Z,100212.08
2018-11-01T13:43:13.372Z,100209.41
2018-11-01T13:45:41.893Z,100210.89
2018-11-01T13:48:10.591Z,100205.91
2018-11-01T13:50:39.037Z,100208.75
2018-11-01T13:53:07.553Z,100194.58
2018-11-01T13:55:36.069Z,100191.72
2018-11-01T13:58:04.578Z,100186.41
2018-11-01T14:00:33.121Z,100187.67
2018-11-01T14:03:01.706Z,100184.15
2018-11-01T14:05:30.335Z,100177.53
2018-11-01T14:07:58.871Z,100178.95
2018-11-01T14:10:27.391Z,100178.47
2018-11-01T14:12:55.927Z,100182.73
2018-11-01T14:15:24.983Z,100182.31
2018-11-01T14:17:53.116Z,100183.14
2018-11-01T14:20:21.656Z,100185.08
2018-11-01T14:22:50.134Z,100181.72
2018-11-01T14:25:18.768Z,100188.73
2018-11-01T14:27:47.709Z,100185.78
2018-11-01T14:30:17.054Z,100184.66
2018-11-01T14:32:45.675Z,100195.44
2018-11-01T14:35:14.282Z,100191.56
2018-11-01T14:37:42.903Z,100204.30
2018-11-01T14:40:12.681Z,100209.50
2018-11-01T14:42:41.295Z,100219.95
2018-11-01T14:45:10.377Z,100221.78
2018-11-01T14:47:39.201Z,100228.93
2018-11-01T14:50:09.093Z,100231.88
2018-11-01T14:52:38.008Z,100234.70
2018-11-01T14:55:08.201Z,100229.32
2018-11-01T14:57:36.866Z,100234.36
2018-11-01T15:00:04.245Z,100237.61
2018-11-01T15:02:32.833Z,100245.63
2018-11-01T15:05:01.408Z,100242.07
2018-11-01T15:07:29.941Z,100246.73
2018-11-01T15:09:58.461Z,100249.16
2018-11-01T15:12:27.013Z,100250.17
2018-11-01T15:14:55.573Z,100255.19
2018-11-01T15:17:24.134Z,100263.52
2018-11-01T15:19:52.704Z,100260.95
2018-11-01T15:22:21.222Z,100261.15
2018-11-01T15:24:49.797Z,100260.03
2018-11-01T15:27:18.692Z,100260.30
2018-11-01T15:29:47.303Z,100264.66
2018-11-01T15:32:21.265Z,100261.82
2018-11-01T15:34:49.765Z,100260.18
2018-11-01T15:37:18.381Z,100254.47
2018-11-01T15:39:46.951Z,100256.56
2018-11-01T15:42:15.511Z,100257.52
2018-11-01T15:44:44.114Z,100257.58
2018-11-01T15:47:12.717Z,100253.80
2018-11-01T15:49:41.395Z,100254.48
2018-11-01T15:52:09.964Z,100255.80
2018-11-01T15:54:38.542Z,100260.27
2018-11-01T15:57:07.154Z,100255.48
2018-11-01T15:59:35.785Z,100259.30
2018-11-01T16:02:04.305Z,100260.49
2018-11-01T16:04:32.814Z,100261.72
2018-11-01T16:07:01.358Z,100258.95
2018-11-01T16:09:29.964Z,100266.66
2018-11-01T16:11:58.513Z,100263.95
2018-11-01T16:14:27.041Z,100268.19
2018-11-01T16:16:55.555Z,100261.91
2018-11-01T16:19:24.207Z,100272.97
2018-11-01T16:21:52.670Z,100273.86
2018-11-01T16:24:21.274Z,100267.32
2018-11-01T16:26:49.971Z,100270.78
2018-11-01T16:29:18.478Z,100269.59
2018-11-01T16:31:47.039Z,100271.71
2018-11-01T16:34:15.623Z,100274.25
2018-11-01T16:36:44.368Z,100280.84
2018-11-01T16:39:13.297Z,100281.34
2018-11-01T16:41:41.854Z,100282.62
2018-11-01T16:44:11.289Z,100279.59
2018-11-01T16:46:39.922Z,100280.41
2018-11-01T16:49:09.321Z,100280.84
2018-11-01T16:51:37.932Z,100282.55
2018-11-01T16:54:06.552Z,100284.33
2018-11-01T16:56:35.277Z,100289.41
2018-11-01T16:59:03.863Z,100288.09
2018-11-01T17:01:32.723Z,100291.85
2018-11-01T17:04:01.255Z,100285.32
2018-11-01T17:06:29.854Z,100286.89
2018-11-01T17:08:58.466Z,100289.47
2018-11-01T17:11:27.043Z,100290.30
2018-11-01T17:13:56.180Z,100291.42
2018-11-01T17:16:24.721Z,100288.72
2018-11-01T17:18:53.263Z,100295.31
2018-11-01T17:21:21.861Z,100294.10
2018-11-01T17:23:50.416Z,100282.36
2018-11-01T17:26:18.939Z,100291.95
2018-11-01T17:28:47.496Z,100288.95
2018-11-01T17:31:15.989Z,100291.07
2018-11-01T17:33:44.499Z,100289.45
2018-11-01T17:36:13.049Z,100286.14
2018-11-01T17:38:41.622Z,100288.48
2018-11-01T17:41:10.188Z,100285.52
2018-11-01T17:43:38.824Z,100284.25
2018-11-01T17:46:07.483Z,100276.77
2018-11-01T17:48:35.903Z,100278.03
2018-11-01T17:51:04.499Z,100280.97
2018-11-01T17:53:33.030Z,100286.38
2018-11-01T17:56:01.710Z,100280.73
2018-11-01T17:58:30.209Z,100269.62
2018-11-01T18:00:58.779Z,100272.16
2018-11-01T18:03:27.391Z,100271.67
2018-11-01T18:05:55.938Z,100277.87
2018-11-01T18:08:24.584Z,100269.40
2018-11-01T18:10:53.702Z,100260.92
2018-11-01T18:13:22.280Z,100261.08
2018-11-01T18:15:50.786Z,100261.97
2018-11-01T18:18:19.938Z,100261.04
2018-11-01T18:20:48.434Z,100259.78
2018-11-01T18:23:17.120Z,100254.47
2018-11-01T18:25:48.236Z,100258.03
2018-11-01T18:28:17.446Z,100258.86
2018-11-01T18:30:46.017Z,100259.61
2018-11-01T18:33:14.597Z,100257.98
2018-11-01T18:35:43.089Z,100264.82
2018-11-01T18:38:11.642Z,100272.23
2018-11-01T18:40:40.307Z,100270.09
2018-11-01T18:43:08.925Z,100267.45
2018-11-01T18:45:37.481Z,100266.08
2018-11-01T18:48:06.397Z,100268.13
2018-11-01T18:50:35.509Z,100268.78
2018-11-01T18:53:04.014Z,100266.70
2018-11-01T18:55:32.634Z,100270.70
2018-11-01T18:58:01.330Z,100262.80
2018-11-01T19:00:29.891Z,100269.69
2018-11-01T19:02:59.037Z,100270.27
2018-11-01T19:05:27.545Z,100263.44
2018-11-01T19:07:56.114Z,100259.16
2018-11-01T19:10:25.194Z,100269.95
2018-11-01T19:12:54.927Z,100271.02
2018-11-01T19:15:23.502Z,100261.49
2018-11-01T19:17:52.376Z,100258.86
2018-11-01T19:20:21.010Z,100260.56
2018-11-01T19:22:49.573Z,100260.92
2018-11-01T19:25:18.167Z,100260.86
2018-11-01T19:27:46.772Z,100259.78
2018-11-01T19:30:15.294Z,100260.92
2018-11-01T19:32:43.925Z,100265.41
2018-11-01T19:35:13.397Z,100261.25
2018-11-01T19:37:42.628Z,100263.89
2018-11-01T19:40:13.603Z,100272.19
2018-11-01T19:42:42.517Z,100269.81
2018-11-01T19:45:11.139Z,100272.31
2018-11-01T19:47:39.821Z,100284.95
2018-11-01T19:50:10.444Z,100284.12
2018-11-01T19:52:39.030Z,100283.97
2018-11-01T19:55:08.561Z,100284.41
2018-11-01T19:57:37.178Z,100277.62
2018-11-01T20:00:07.719Z,100288.55
2018-11-01T20:02:36.268Z,100284.25
2018-11-01T20:05:05.081Z,100282.53
2018-11-01T20:07:33.582Z,100285.17
2018-11-01T20:10:02.196Z,100285.23
2018-11-01T20:12:30.747Z,100294.03
2018-11-01T20:14:59.291Z,100292.37
2018-11-01T20:17:27.863Z,100287.85
2018-11-01T20:19:56.435Z,100286.66
2018-11-01T20:22:25.008Z,100289.53
2018-11-01T20:24:53.763Z,100287.03
2018-11-01T20:27:22.387Z,100289.61
2018-11-01T20:29:50.890Z,100285.52
2018-11-01T20:32:19.439Z,100292.94
2018-11-01T20:34:47.999Z,100288.28
2018-11-01T20:37:16.494Z,100288.55
2018-11-01T20:39:45.007Z,100287.19
2018-11-01T20:42:13.556Z,100294.41
2018-11-01T20:44:42.069Z,100297.53
2018-11-01T20:47:10.633Z,100293.58
2018-11-01T20:49:39.162Z,100298.23
2018-11-01T20:52:07.764Z,100291.20
2018-11-01T20:54:36.282Z,100296.53
2018-11-01T20:57:05.234Z,100297.49
2018-11-01T20:59:33.669Z,100289.44
2018-11-01T21:02:02.202Z,100289.58
2018-11-01T21:04:30.713Z,100290.27
2018-11-01T21:08:01.789Z,100293.45
2018-11-01T21:10:30.322Z,100305.66
2018-11-01T21:12:58.894Z,100297.41
2018-11-01T21:15:27.397Z,100306.73
2018-11-01T21:17:55.883Z,100303.90
2018-11-01T21:20:24.382Z,100294.97
2018-11-01T21:22:52.933Z,100291.02
2018-11-01T21:25:21.441Z,100302.00
2018-11-01T21:27:49.989Z,100289.64
2018-11-01T21:30:18.586Z,100295.41
2018-11-01T21:32:47.074Z,100289.94
2018-11-01T21:35:15.611Z,100292.03
2018-11-01T21:37:44.049Z,100298.19
2018-11-01T21:40:12.606Z,100298.96
2018-11-01T21:42:41.130Z,100298.69
2018-11-01T21:45:11.835Z,100298.44
2018-11-01T21:47:40.456Z,100300.96
2018-11-01T21:50:09.239Z,100297.55
2018-11-01T21:52:37.886Z,100301.20
2018-11-01T21:55:06.961Z,100304.39
2018-11-01T21:57:35.613Z,100315.08
2018-11-01T22:00:04.230Z,100304.95
2018-11-01T22:02:32.758Z,100300.47
2018-11-01T22:05:01.259Z,100299.74
2018-11-01T22:07:29.825Z,100291.63
2018-11-01T22:09:58.449Z,100295.16
2018-11-01T22:12:26.972Z,100288.80
2018-11-01T22:14:55.528Z,100290.51
2018-11-01T22:17:24.065Z,100289.58
2018-11-01T22:19:52.561Z,100292.32
2018-11-01T22:22:21.139Z,100294.72
2018-11-01T22:24:49.694Z,100291.78
2018-11-01T22:27:18.252Z,100301.75
2018-11-01T22:29:46.805Z,100289.05
2018-11-01T22:32:15.317Z,100290.02
2018-11-01T22:34:43.848Z,100291.63
2018-11-01T22:37:12.429Z,100289.73
2018-11-01T22:39:40.972Z,100291.81
2018-11-01T22:42:09.469Z,100295.38
2018-11-01T22:44:38.077Z,100294.94
2018-11-01T22:47:06.988Z,100288.48
2018-11-01T22:49:35.505Z,100288.05
2018-11-01T22:52:04.051Z,100294.06
2018-11-01T22:54:32.579Z,100298.21
2018-11-01T22:57:01.173Z,100294.98
2018-11-01T22:59:29.680Z,100293.47
2018-11-01T23:01:58.161Z,100295.31
2018-11-01T23:04:26.746Z,100295.42
2018-11-01T23:06:55.346Z,100301.19
2018-11-01T23:09:23.843Z,100303.96
2018-11-01T23:11:52.330Z,100301.27
2018-11-01T23:14:20.817Z,100304.50
2018-11-01T23:16:49.315Z,100309.97
2018-11-01T23:19:17.891Z,100313.05
2018-11-01T23:21:46.447Z,100309.77
2018-11-01T23:24:15.044Z,100314.30
2018-11-01T23:26:43.616Z,100304.87
2018-11-01T23:29:12.154Z,100306.81
2018-11-01T23:31:40.718Z,100310.02
2018-11-01T23:34:09.264Z,100313.02
2018-11-01T23:36:42.862Z,100302.79
2018-11-01T23:39:16.404Z,100315.89
2018-11-01T23:41:50.266Z,100315.55
2018-11-01T23:44:23.950Z,100311.34
2018-11-01T23:46:57.617Z,100314.80
2018-11-01T23:49:29.161Z,100318.47
2018-11-01T23:52:01.701Z,100319.86
2018-11-01T23:54:30.246Z,100319.23
2018-11-01T23:56:58.894Z,100318.70
2018-11-01T23:59:27.381Z,100326.72
